sensor_id;sensor_type;location;lat;lon;timestamp;P1;durP1;ratioP1;P2;durP2;ratioP2
45764;SDS011;31474;45.332;10.230;2023-12-07T00:00:40;37.30;;;23.38;;
45764;SDS011;31474;45.332;10.230;2023-12-07T00:03:06;43.50;;;24.13;;
45764;SDS011;31474;45.332;10.230;2023-12-07T00:05:32;39.97;;;21.67;;
45764;SDS011;31474;45.332;10.230;2023-12-07T00:07:58;39.00;;;23.35;;
45764;SDS011;31474;45.332;10.230;2023-12-07T00:10:24;34.25;;;21.48;;
45764;SDS011;31474;45.332;10.230;2023-12-07T00:12:49;37.05;;;21.77;;
45764;SDS011;31474;45.332;10.230;2023-12-07T00:15:15;37.05;;;21.60;;
45764;SDS011;31474;45.332;10.230;2023-12-07T00:17:41;37.65;;;21.50;;
45764;SDS011;31474;45.332;10.230;2023-12-07T00:20:06;37.10;;;21.38;;
45764;SDS011;31474;45.332;10.230;2023-12-07T00:22:33;34.40;;;20.67;;
45764;SDS011;31474;45.332;10.230;2023-12-07T00:24:58;37.28;;;21.58;;
45764;SDS011;31474;45.332;10.230;2023-12-07T00:27:24;42.80;;;22.92;;
45764;SDS011;31474;45.332;10.230;2023-12-07T00:29:50;40.10;;;21.65;;
45764;SDS011;31474;45.332;10.230;2023-12-07T00:32:15;37.88;;;22.67;;
45764;SDS011;31474;45.332;10.230;2023-12-07T00:34:42;39.55;;;20.42;;
45764;SDS011;31474;45.332;10.230;2023-12-07T00:37:08;38.45;;;21.45;;
45764;SDS011;31474;45.332;10.230;2023-12-07T00:39:34;34.22;;;21.25;;
45764;SDS011;31474;45.332;10.230;2023-12-07T00:42:01;33.15;;;20.45;;
45764;SDS011;31474;45.332;10.230;2023-12-07T00:44:28;38.13;;;22.25;;
45764;SDS011;31474;45.332;10.230;2023-12-07T00:46:53;36.78;;;22.63;;
45764;SDS011;31474;45.332;10.230;2023-12-07T00:49:19;36.35;;;21.23;;
45764;SDS011;31474;45.332;10.230;2023-12-07T00:51:44;37.97;;;21.40;;
45764;SDS011;31474;45.332;10.230;2023-12-07T00:54:10;36.20;;;22.23;;
45764;SDS011;31474;45.332;10.230;2023-12-07T00:56:36;38.72;;;21.45;;
45764;SDS011;31474;45.332;10.230;2023-12-07T00:59:02;40.13;;;21.23;;
45764;SDS011;31474;45.332;10.230;2023-12-07T01:01:28;36.05;;;21.65;;
45764;SDS011;31474;45.332;10.230;2023-12-07T01:03:53;38.08;;;22.23;;
45764;SDS011;31474;45.332;10.230;2023-12-07T01:06:19;36.92;;;22.95;;
45764;SDS011;31474;45.332;10.230;2023-12-07T01:08:45;38.55;;;20.70;;
45764;SDS011;31474;45.332;10.230;2023-12-07T01:11:11;36.28;;;20.67;;
45764;SDS011;31474;45.332;10.230;2023-12-07T01:13:36;39.22;;;22.52;;
45764;SDS011;31474;45.332;10.230;2023-12-07T01:16:02;32.65;;;18.80;;
45764;SDS011;31474;45.332;10.230;2023-12-07T01:18:28;35.92;;;21.67;;
45764;SDS011;31474;45.332;10.230;2023-12-07T01:20:53;34.83;;;20.52;;
45764;SDS011;31474;45.332;10.230;2023-12-07T01:23:19;34.67;;;20.50;;
45764;SDS011;31474;45.332;10.230;2023-12-07T01:25:45;37.60;;;20.10;;
45764;SDS011;31474;45.332;10.230;2023-12-07T01:28:10;37.22;;;21.48;;
45764;SDS011;31474;45.332;10.230;2023-12-07T01:30:36;41.58;;;21.25;;
45764;SDS011;31474;45.332;10.230;2023-12-07T01:33:02;36.85;;;21.40;;
45764;SDS011;31474;45.332;10.230;2023-12-07T01:35:28;36.42;;;21.52;;
45764;SDS011;31474;45.332;10.230;2023-12-07T01:37:54;38.20;;;21.83;;
45764;SDS011;31474;45.332;10.230;2023-12-07T01:40:19;31.17;;;19.88;;
45764;SDS011;31474;45.332;10.230;2023-12-07T01:42:49;38.88;;;22.73;;
45764;SDS011;31474;45.332;10.230;2023-12-07T01:45:16;33.78;;;19.65;;
45764;SDS011;31474;45.332;10.230;2023-12-07T01:47:41;36.65;;;20.98;;
45764;SDS011;31474;45.332;10.230;2023-12-07T01:50:08;35.70;;;21.20;;
45764;SDS011;31474;45.332;10.230;2023-12-07T01:52:36;39.10;;;22.55;;
45764;SDS011;31474;45.332;10.230;2023-12-07T01:55:06;33.88;;;20.83;;
45764;SDS011;31474;45.332;10.230;2023-12-07T01:57:34;32.08;;;18.83;;
45764;SDS011;31474;45.332;10.230;2023-12-07T02:00:01;36.50;;;20.67;;
45764;SDS011;31474;45.332;10.230;2023-12-07T02:02:27;34.83;;;20.45;;
45764;SDS011;31474;45.332;10.230;2023-12-07T02:04:52;37.05;;;22.38;;
45764;SDS011;31474;45.332;10.230;2023-12-07T02:07:19;34.05;;;21.05;;
45764;SDS011;31474;45.332;10.230;2023-12-07T02:09:44;30.52;;;19.05;;
45764;SDS011;31474;45.332;10.230;2023-12-07T02:12:11;36.92;;;19.42;;
45764;SDS011;31474;45.332;10.230;2023-12-07T02:14:36;37.20;;;21.63;;
45764;SDS011;31474;45.332;10.230;2023-12-07T02:17:18;38.33;;;22.17;;
45764;SDS011;31474;45.332;10.230;2023-12-07T02:19:52;39.15;;;21.55;;
45764;SDS011;31474;45.332;10.230;2023-12-07T02:22:32;39.55;;;21.73;;
45764;SDS011;31474;45.332;10.230;2023-12-07T02:25:05;37.95;;;20.75;;
45764;SDS011;31474;45.332;10.230;2023-12-07T02:30:13;32.90;;;21.02;;
45764;SDS011;31474;45.332;10.230;2023-12-07T02:32:40;38.70;;;22.27;;
45764;SDS011;31474;45.332;10.230;2023-12-07T02:35:09;33.00;;;20.45;;
45764;SDS011;31474;45.332;10.230;2023-12-07T02:37:40;32.05;;;20.45;;
45764;SDS011;31474;45.332;10.230;2023-12-07T02:40:09;31.38;;;20.35;;
45764;SDS011;31474;45.332;10.230;2023-12-07T02:42:37;33.40;;;20.20;;
45764;SDS011;31474;45.332;10.230;2023-12-07T02:45:05;28.52;;;18.70;;
45764;SDS011;31474;45.332;10.230;2023-12-07T02:47:31;35.70;;;21.20;;
45764;SDS011;31474;45.332;10.230;2023-12-07T02:49:56;30.92;;;20.38;;
45764;SDS011;31474;45.332;10.230;2023-12-07T02:52:22;34.25;;;21.88;;
45764;SDS011;31474;45.332;10.230;2023-12-07T02:54:48;31.02;;;20.83;;
45764;SDS011;31474;45.332;10.230;2023-12-07T02:57:13;36.97;;;19.65;;
45764;SDS011;31474;45.332;10.230;2023-12-07T02:59:39;31.73;;;19.15;;
45764;SDS011;31474;45.332;10.230;2023-12-07T03:02:05;32.70;;;21.30;;
45764;SDS011;31474;45.332;10.230;2023-12-07T03:04:31;30.23;;;18.88;;
45764;SDS011;31474;45.332;10.230;2023-12-07T03:06:57;28.35;;;19.48;;
45764;SDS011;31474;45.332;10.230;2023-12-07T03:09:23;30.85;;;20.23;;
45764;SDS011;31474;45.332;10.230;2023-12-07T03:11:49;29.95;;;19.25;;
45764;SDS011;31474;45.332;10.230;2023-12-07T03:14:15;31.48;;;19.50;;
45764;SDS011;31474;45.332;10.230;2023-12-07T03:16:41;30.80;;;20.13;;
45764;SDS011;31474;45.332;10.230;2023-12-07T03:19:06;33.58;;;20.63;;
45764;SDS011;31474;45.332;10.230;2023-12-07T03:21:32;37.20;;;20.50;;
45764;SDS011;31474;45.332;10.230;2023-12-07T03:23:58;30.35;;;20.23;;
45764;SDS011;31474;45.332;10.230;2023-12-07T03:26:23;34.63;;;20.45;;
45764;SDS011;31474;45.332;10.230;2023-12-07T03:28:49;28.98;;;19.85;;
45764;SDS011;31474;45.332;10.230;2023-12-07T03:31:15;30.23;;;18.13;;
45764;SDS011;31474;45.332;10.230;2023-12-07T03:33:41;31.60;;;19.65;;
45764;SDS011;31474;45.332;10.230;2023-12-07T03:36:10;28.45;;;18.73;;
45764;SDS011;31474;45.332;10.230;2023-12-07T03:38:37;37.10;;;20.42;;
45764;SDS011;31474;45.332;10.230;2023-12-07T03:41:03;32.83;;;18.58;;
45764;SDS011;31474;45.332;10.230;2023-12-07T03:43:29;31.67;;;18.40;;
45764;SDS011;31474;45.332;10.230;2023-12-07T03:45:54;32.88;;;18.92;;
45764;SDS011;31474;45.332;10.230;2023-12-07T03:48:20;31.70;;;19.42;;
45764;SDS011;31474;45.332;10.230;2023-12-07T03:50:46;33.03;;;19.17;;
45764;SDS011;31474;45.332;10.230;2023-12-07T03:53:11;31.27;;;19.52;;
45764;SDS011;31474;45.332;10.230;2023-12-07T03:55:37;31.05;;;19.33;;
45764;SDS011;31474;45.332;10.230;2023-12-07T03:58:04;31.10;;;19.40;;
45764;SDS011;31474;45.332;10.230;2023-12-07T04:00:31;33.03;;;18.80;;
45764;SDS011;31474;45.332;10.230;2023-12-07T04:02:57;36.63;;;19.30;;
45764;SDS011;31474;45.332;10.230;2023-12-07T04:05:23;26.23;;;17.55;;
45764;SDS011;31474;45.332;10.230;2023-12-07T04:07:49;30.65;;;18.75;;
45764;SDS011;31474;45.332;10.230;2023-12-07T04:10:15;29.10;;;18.42;;
45764;SDS011;31474;45.332;10.230;2023-12-07T04:12:41;33.17;;;19.88;;
45764;SDS011;31474;45.332;10.230;2023-12-07T04:15:06;29.48;;;18.20;;
45764;SDS011;31474;45.332;10.230;2023-12-07T04:17:32;28.90;;;15.95;;
45764;SDS011;31474;45.332;10.230;2023-12-07T04:19:58;31.70;;;17.20;;
45764;SDS011;31474;45.332;10.230;2023-12-07T04:22:24;36.75;;;19.08;;
45764;SDS011;31474;45.332;10.230;2023-12-07T04:24:49;24.23;;;16.23;;
45764;SDS011;31474;45.332;10.230;2023-12-07T04:27:15;28.48;;;16.55;;
45764;SDS011;31474;45.332;10.230;2023-12-07T04:29:41;30.40;;;18.02;;
45764;SDS011;31474;45.332;10.230;2023-12-07T04:32:07;28.58;;;16.98;;
45764;SDS011;31474;45.332;10.230;2023-12-07T04:34:32;25.77;;;17.25;;
45764;SDS011;31474;45.332;10.230;2023-12-07T04:36:58;29.35;;;18.05;;
45764;SDS011;31474;45.332;10.230;2023-12-07T04:39:24;25.83;;;17.98;;
45764;SDS011;31474;45.332;10.230;2023-12-07T04:41:50;27.17;;;17.85;;
45764;SDS011;31474;45.332;10.230;2023-12-07T04:44:16;30.52;;;17.98;;
45764;SDS011;31474;45.332;10.230;2023-12-07T04:46:42;34.10;;;17.40;;
45764;SDS011;31474;45.332;10.230;2023-12-07T04:49:08;24.65;;;16.48;;
45764;SDS011;31474;45.332;10.230;2023-12-07T04:51:33;28.92;;;18.42;;
45764;SDS011;31474;45.332;10.230;2023-12-07T04:53:59;28.27;;;18.65;;
45764;SDS011;31474;45.332;10.230;2023-12-07T04:56:25;24.85;;;16.10;;
45764;SDS011;31474;45.332;10.230;2023-12-07T04:58:50;27.27;;;16.60;;
45764;SDS011;31474;45.332;10.230;2023-12-07T05:01:16;25.65;;;16.02;;
45764;SDS011;31474;45.332;10.230;2023-12-07T05:03:43;24.48;;;15.38;;
45764;SDS011;31474;45.332;10.230;2023-12-07T05:06:10;24.75;;;16.13;;
45764;SDS011;31474;45.332;10.230;2023-12-07T05:08:36;25.77;;;16.20;;
45764;SDS011;31474;45.332;10.230;2023-12-07T05:11:04;28.90;;;15.75;;
45764;SDS011;31474;45.332;10.230;2023-12-07T05:13:30;27.20;;;16.58;;
45764;SDS011;31474;45.332;10.230;2023-12-07T05:15:57;26.75;;;16.88;;
45764;SDS011;31474;45.332;10.230;2023-12-07T05:18:22;29.92;;;17.25;;
45764;SDS011;31474;45.332;10.230;2023-12-07T05:20:48;26.55;;;15.05;;
45764;SDS011;31474;45.332;10.230;2023-12-07T05:23:14;29.10;;;16.17;;
45764;SDS011;31474;45.332;10.230;2023-12-07T05:25:40;21.33;;;15.15;;
45764;SDS011;31474;45.332;10.230;2023-12-07T05:28:05;27.58;;;16.50;;
45764;SDS011;31474;45.332;10.230;2023-12-07T05:30:31;27.60;;;17.35;;
45764;SDS011;31474;45.332;10.230;2023-12-07T05:32:57;24.65;;;15.52;;
45764;SDS011;31474;45.332;10.230;2023-12-07T05:35:22;24.58;;;16.02;;
45764;SDS011;31474;45.332;10.230;2023-12-07T05:37:48;29.17;;;17.77;;
45764;SDS011;31474;45.332;10.230;2023-12-07T05:40:14;25.95;;;16.60;;
45764;SDS011;31474;45.332;10.230;2023-12-07T05:42:41;29.40;;;17.42;;
45764;SDS011;31474;45.332;10.230;2023-12-07T05:45:06;28.55;;;16.50;;
45764;SDS011;31474;45.332;10.230;2023-12-07T05:47:35;24.88;;;15.82;;
45764;SDS011;31474;45.332;10.230;2023-12-07T05:50:01;24.50;;;16.08;;
45764;SDS011;31474;45.332;10.230;2023-12-07T05:52:28;25.30;;;16.40;;
45764;SDS011;31474;45.332;10.230;2023-12-07T05:54:54;31.40;;;17.63;;
45764;SDS011;31474;45.332;10.230;2023-12-07T05:57:20;26.92;;;15.27;;
45764;SDS011;31474;45.332;10.230;2023-12-07T05:59:45;26.85;;;15.23;;
45764;SDS011;31474;45.332;10.230;2023-12-07T06:02:11;26.90;;;16.33;;
45764;SDS011;31474;45.332;10.230;2023-12-07T06:04:36;26.08;;;16.35;;
45764;SDS011;31474;45.332;10.230;2023-12-07T06:07:03;22.45;;;14.63;;
45764;SDS011;31474;45.332;10.230;2023-12-07T06:09:28;23.15;;;15.80;;
45764;SDS011;31474;45.332;10.230;2023-12-07T06:11:54;21.50;;;14.25;;
45764;SDS011;31474;45.332;10.230;2023-12-07T06:14:20;24.10;;;15.45;;
45764;SDS011;31474;45.332;10.230;2023-12-07T06:16:48;28.30;;;15.70;;
45764;SDS011;31474;45.332;10.230;2023-12-07T06:19:14;28.38;;;18.55;;
45764;SDS011;31474;45.332;10.230;2023-12-07T06:21:39;27.77;;;16.80;;
45764;SDS011;31474;45.332;10.230;2023-12-07T06:24:05;25.80;;;15.82;;
45764;SDS011;31474;45.332;10.230;2023-12-07T06:26:32;25.67;;;15.57;;
45764;SDS011;31474;45.332;10.230;2023-12-07T06:28:58;25.98;;;16.08;;
45764;SDS011;31474;45.332;10.230;2023-12-07T06:31:24;23.15;;;14.35;;
45764;SDS011;31474;45.332;10.230;2023-12-07T06:33:49;26.70;;;16.20;;
45764;SDS011;31474;45.332;10.230;2023-12-07T06:36:21;51.67;;;21.08;;
45764;SDS011;31474;45.332;10.230;2023-12-07T06:38:47;89.28;;;35.15;;
45764;SDS011;31474;45.332;10.230;2023-12-07T06:41:14;89.05;;;36.95;;
45764;SDS011;31474;45.332;10.230;2023-12-07T06:43:40;51.63;;;27.85;;
45764;SDS011;31474;45.332;10.230;2023-12-07T06:46:06;61.40;;;33.53;;
45764;SDS011;31474;45.332;10.230;2023-12-07T06:48:32;49.05;;;27.17;;
45764;SDS011;31474;45.332;10.230;2023-12-07T06:50:58;34.45;;;20.25;;
45764;SDS011;31474;45.332;10.230;2023-12-07T06:53:24;32.45;;;19.58;;
45764;SDS011;31474;45.332;10.230;2023-12-07T06:55:50;35.95;;;17.35;;
45764;SDS011;31474;45.332;10.230;2023-12-07T06:58:15;28.70;;;18.23;;
45764;SDS011;31474;45.332;10.230;2023-12-07T07:00:41;32.13;;;17.80;;
45764;SDS011;31474;45.332;10.230;2023-12-07T07:03:06;39.28;;;20.27;;
45764;SDS011;31474;45.332;10.230;2023-12-07T07:05:32;33.28;;;19.90;;
45764;SDS011;31474;45.332;10.230;2023-12-07T07:07:58;34.30;;;18.35;;
45764;SDS011;31474;45.332;10.230;2023-12-07T07:10:23;35.90;;;19.70;;
45764;SDS011;31474;45.332;10.230;2023-12-07T07:12:49;40.70;;;19.00;;
45764;SDS011;31474;45.332;10.230;2023-12-07T07:15:15;30.95;;;18.02;;
45764;SDS011;31474;45.332;10.230;2023-12-07T07:17:41;37.10;;;19.98;;
45764;SDS011;31474;45.332;10.230;2023-12-07T07:20:07;31.98;;;18.65;;
45764;SDS011;31474;45.332;10.230;2023-12-07T07:22:33;41.08;;;18.23;;
45764;SDS011;31474;45.332;10.230;2023-12-07T07:24:59;35.67;;;19.65;;
45764;SDS011;31474;45.332;10.230;2023-12-07T07:27:25;31.25;;;19.13;;
45764;SDS011;31474;45.332;10.230;2023-12-07T07:29:51;35.10;;;20.27;;
45764;SDS011;31474;45.332;10.230;2023-12-07T07:32:17;35.33;;;20.02;;
45764;SDS011;31474;45.332;10.230;2023-12-07T07:34:42;30.80;;;17.55;;
45764;SDS011;31474;45.332;10.230;2023-12-07T07:37:08;36.45;;;16.70;;
45764;SDS011;31474;45.332;10.230;2023-12-07T07:39:34;32.17;;;18.67;;
45764;SDS011;31474;45.332;10.230;2023-12-07T07:42:00;29.73;;;17.55;;
45764;SDS011;31474;45.332;10.230;2023-12-07T07:44:25;27.92;;;16.95;;
45764;SDS011;31474;45.332;10.230;2023-12-07T07:46:51;26.23;;;16.20;;
45764;SDS011;31474;45.332;10.230;2023-12-07T07:49:17;30.48;;;17.58;;
45764;SDS011;31474;45.332;10.230;2023-12-07T07:51:42;24.58;;;15.07;;
45764;SDS011;31474;45.332;10.230;2023-12-07T07:54:08;33.63;;;17.70;;
45764;SDS011;31474;45.332;10.230;2023-12-07T07:56:34;29.63;;;18.50;;
45764;SDS011;31474;45.332;10.230;2023-12-07T07:59:00;31.58;;;19.63;;
45764;SDS011;31474;45.332;10.230;2023-12-07T08:01:26;35.30;;;17.83;;
45764;SDS011;31474;45.332;10.230;2023-12-07T08:03:52;28.98;;;17.40;;
45764;SDS011;31474;45.332;10.230;2023-12-07T08:06:17;24.88;;;16.75;;
45764;SDS011;31474;45.332;10.230;2023-12-07T08:08:43;29.30;;;16.65;;
45764;SDS011;31474;45.332;10.230;2023-12-07T08:11:09;26.88;;;15.68;;
45764;SDS011;31474;45.332;10.230;2023-12-07T08:13:35;27.95;;;16.77;;
45764;SDS011;31474;45.332;10.230;2023-12-07T08:16:01;24.40;;;14.77;;
45764;SDS011;31474;45.332;10.230;2023-12-07T08:18:26;25.33;;;14.77;;
45764;SDS011;31474;45.332;10.230;2023-12-07T08:20:52;22.67;;;14.00;;
45764;SDS011;31474;45.332;10.230;2023-12-07T08:23:18;31.60;;;16.05;;
45764;SDS011;31474;45.332;10.230;2023-12-07T08:25:43;23.10;;;14.77;;
45764;SDS011;31474;45.332;10.230;2023-12-07T08:28:09;23.52;;;14.65;;
45764;SDS011;31474;45.332;10.230;2023-12-07T08:30:35;27.90;;;14.02;;
45764;SDS011;31474;45.332;10.230;2023-12-07T08:33:01;25.77;;;14.57;;
45764;SDS011;31474;45.332;10.230;2023-12-07T08:35:27;23.20;;;13.90;;
45764;SDS011;31474;45.332;10.230;2023-12-07T08:37:53;28.13;;;15.63;;
45764;SDS011;31474;45.332;10.230;2023-12-07T08:40:19;32.67;;;16.73;;
45764;SDS011;31474;45.332;10.230;2023-12-07T08:42:45;26.20;;;15.95;;
45764;SDS011;31474;45.332;10.230;2023-12-07T08:45:11;25.27;;;16.10;;
45764;SDS011;31474;45.332;10.230;2023-12-07T08:47:38;26.65;;;16.38;;
45764;SDS011;31474;45.332;10.230;2023-12-07T08:50:04;29.52;;;18.25;;
45764;SDS011;31474;45.332;10.230;2023-12-07T08:52:32;35.03;;;18.27;;
45764;SDS011;31474;45.332;10.230;2023-12-07T08:54:59;25.17;;;16.15;;
45764;SDS011;31474;45.332;10.230;2023-12-07T08:57:24;30.65;;;17.08;;
45764;SDS011;31474;45.332;10.230;2023-12-07T08:59:50;27.80;;;16.98;;
45764;SDS011;31474;45.332;10.230;2023-12-07T09:02:16;32.50;;;19.17;;
45764;SDS011;31474;45.332;10.230;2023-12-07T09:04:41;29.42;;;16.65;;
45764;SDS011;31474;45.332;10.230;2023-12-07T09:07:07;31.42;;;19.90;;
45764;SDS011;31474;45.332;10.230;2023-12-07T09:09:34;44.80;;;23.67;;
45764;SDS011;31474;45.332;10.230;2023-12-07T09:12:00;80.70;;;30.55;;
45764;SDS011;31474;45.332;10.230;2023-12-07T09:14:26;95.05;;;40.17;;
45764;SDS011;31474;45.332;10.230;2023-12-07T09:16:52;50.25;;;28.00;;
45764;SDS011;31474;45.332;10.230;2023-12-07T09:19:17;37.15;;;23.67;;
45764;SDS011;31474;45.332;10.230;2023-12-07T09:21:43;45.00;;;27.15;;
45764;SDS011;31474;45.332;10.230;2023-12-07T09:24:09;42.95;;;23.65;;
45764;SDS011;31474;45.332;10.230;2023-12-07T09:26:34;41.83;;;25.98;;
45764;SDS011;31474;45.332;10.230;2023-12-07T09:29:01;40.95;;;23.27;;
45764;SDS011;31474;45.332;10.230;2023-12-07T09:31:27;37.65;;;23.38;;
45764;SDS011;31474;45.332;10.230;2023-12-07T09:33:53;36.13;;;21.65;;
45764;SDS011;31474;45.332;10.230;2023-12-07T09:36:19;34.35;;;22.25;;
45764;SDS011;31474;45.332;10.230;2023-12-07T09:38:46;31.75;;;20.35;;
45764;SDS011;31474;45.332;10.230;2023-12-07T09:41:12;34.28;;;21.23;;
45764;SDS011;31474;45.332;10.230;2023-12-07T09:43:38;37.03;;;22.98;;
45764;SDS011;31474;45.332;10.230;2023-12-07T09:46:04;37.95;;;22.77;;
45764;SDS011;31474;45.332;10.230;2023-12-07T09:48:31;36.33;;;23.23;;
45764;SDS011;31474;45.332;10.230;2023-12-07T09:50:57;39.03;;;25.33;;
45764;SDS011;31474;45.332;10.230;2023-12-07T09:53:26;42.85;;;25.23;;
